createdAt,value
2023-06-17T00:00:10.938Z,37.44
2023-06-17T00:02:38.358Z,38.14
2023-06-17T00:05:06.792Z,38.71
2023-06-17T00:07:34.250Z,39.24
2023-06-17T00:10:01.972Z,39.81
2023-06-17T00:12:32.636Z,40.37
2023-06-17T00:15:04.078Z,40.83
2023-06-17T00:17:31.882Z,41.40
2023-06-17T00:20:08.953Z,41.56
2023-06-17T00:22:36.796Z,41.93
2023-06-17T00:25:04.774Z,42.34
2023-06-17T00:27:32.287Z,42.76
2023-06-17T00:30:00.851Z,43.30
2023-06-17T00:32:32.777Z,43.66
2023-06-17T00:35:00.156Z,43.84
2023-06-17T00:37:27.562Z,43.82
2023-06-17T00:39:55.437Z,44.42
2023-06-17T00:42:23.109Z,44.83
2023-06-17T00:44:51.176Z,45.04
2023-06-17T00:47:18.388Z,45.09
2023-06-17T00:49:46.336Z,45.23
2023-06-17T00:54:44.230Z,46.05
2023-06-17T00:57:14.236Z,46.39
2023-06-17T00:59:43.566Z,46.49
2023-06-17T01:02:11.901Z,46.25
2023-06-17T01:04:43.474Z,46.49
2023-06-17T01:07:24.127Z,46.93
2023-06-17T01:09:57.133Z,47.58
2023-06-17T01:12:27.233Z,48.01
2023-06-17T01:14:55.770Z,48.52
2023-06-17T01:17:23.059Z,49.02
2023-06-17T01:19:50.340Z,49.51
2023-06-17T01:22:18.886Z,49.84
2023-06-17T01:24:49.948Z,50.24
2023-06-17T01:27:21.249Z,50.28
2023-06-17T01:29:50.110Z,50.47
2023-06-17T01:32:17.717Z,50.24
2023-06-17T01:34:48.320Z,50.42
2023-06-17T01:37:17.299Z,50.80
2023-06-17T01:39:45.729Z,51.23
2023-06-17T01:42:17.947Z,51.15
2023-06-17T01:44:46.360Z,51.26
2023-06-17T01:47:13.992Z,51.66
2023-06-17T01:49:41.160Z,51.86
2023-06-17T01:52:10.729Z,51.81
2023-06-17T01:54:39.001Z,51.34
2023-06-17T01:57:06.623Z,51.05
2023-06-17T01:59:34.799Z,51.22
2023-06-17T02:02:02.873Z,51.44
2023-06-17T02:04:30.187Z,51.97
2023-06-17T02:06:58.603Z,52.52
2023-06-17T02:09:25.952Z,52.99
2023-06-17T02:11:53.341Z,52.12
2023-06-17T02:14:20.767Z,51.28
2023-06-17T02:16:48.496Z,50.99
2023-06-17T02:19:16.399Z,51.67
2023-06-17T02:21:43.790Z,52.33
2023-06-17T02:24:11.467Z,52.86
2023-06-17T02:26:40.869Z,53.13
2023-06-17T02:29:08.538Z,53.06
2023-06-17T02:31:36.175Z,53.30
2023-06-17T02:34:03.971Z,52.07
2023-06-17T02:36:31.643Z,50.69
2023-06-17T02:39:00.989Z,50.18
2023-06-17T02:41:29.000Z,51.01
2023-06-17T02:43:56.490Z,50.13
2023-06-17T02:46:25.745Z,49.17
2023-06-17T02:48:53.430Z,49.32
2023-06-17T02:51:21.565Z,50.62
2023-06-17T02:53:49.342Z,51.20
2023-06-17T02:56:19.731Z,51.64
2023-06-17T02:58:47.460Z,52.34
2023-06-17T03:01:15.273Z,52.67
2023-06-17T03:03:46.120Z,52.57
2023-06-17T03:06:14.763Z,52.98
2023-06-17T03:08:45.956Z,53.57
2023-06-17T03:11:13.323Z,53.66
2023-06-17T03:13:43.339Z,53.46
2023-06-17T03:16:25.610Z,53.73
2023-06-17T03:18:54.632Z,53.62
2023-06-17T03:21:22.883Z,53.30
2023-06-17T03:23:52.390Z,53.62
2023-06-17T03:26:21.639Z,53.88
2023-06-17T03:28:51.037Z,53.22
2023-06-17T03:31:21.852Z,53.63
2023-06-17T03:33:52.084Z,53.13
2023-06-17T03:36:20.874Z,52.83
2023-06-17T03:38:48.750Z,52.22
2023-06-17T03:41:18.384Z,52.74
2023-06-17T03:43:48.922Z,52.39
2023-06-17T03:46:16.462Z,51.94
2023-06-17T03:48:44.415Z,52.25
2023-06-17T03:51:12.122Z,52.38
2023-06-17T03:53:40.119Z,52.41
2023-06-17T03:56:09.133Z,51.67
2023-06-17T03:58:37.230Z,51.62
2023-06-17T04:01:07.250Z,51.22
2023-06-17T04:03:35.840Z,50.91
2023-06-17T04:06:03.836Z,50.28
2023-06-17T04:08:33.823Z,49.94
2023-06-17T04:11:01.229Z,49.81
2023-06-17T04:13:29.086Z,49.90
2023-06-17T04:15:57.641Z,49.53
2023-06-17T04:18:29.078Z,48.82
2023-06-17T04:20:57.769Z,48.74
2023-06-17T04:23:29.656Z,47.91
2023-06-17T04:25:57.936Z,47.12
2023-06-17T04:28:26.326Z,45.52
2023-06-17T04:30:54.241Z,44.24
2023-06-17T04:33:25.523Z,43.43
2023-06-17T04:35:53.423Z,42.68
2023-06-17T04:38:22.012Z,42.10
2023-06-17T04:40:54.209Z,41.17
2023-06-17T04:43:25.331Z,39.71
2023-06-17T04:45:53.032Z,38.85
2023-06-17T04:48:22.161Z,38.24
2023-06-17T04:50:49.899Z,37.70
2023-06-17T04:53:19.236Z,36.94
2023-06-17T04:55:46.718Z,36.19
2023-06-17T04:58:15.196Z,35.69
2023-06-17T05:00:51.997Z,35.23
2023-06-17T05:03:26.622Z,34.76
2023-06-17T05:05:54.535Z,33.85
2023-06-17T05:08:26.508Z,33.19
2023-06-17T05:10:54.284Z,32.77
2023-06-17T05:13:22.794Z,32.43
2023-06-17T05:15:51.039Z,31.93
2023-06-17T05:18:18.763Z,31.61
2023-06-17T05:20:46.685Z,30.99
2023-06-17T05:23:14.212Z,30.64
2023-06-17T05:25:42.181Z,30.18
2023-06-17T05:28:12.289Z,29.63
2023-06-17T05:30:40.890Z,29.34
2023-06-17T05:33:09.827Z,29.17
2023-06-17T05:35:38.319Z,29.13
2023-06-17T05:38:06.205Z,29.14
2023-06-17T05:40:34.370Z,29.38
2023-06-17T05:43:02.220Z,29.50
2023-06-17T05:45:29.986Z,29.60
2023-06-17T05:47:59.341Z,29.63
2023-06-17T05:50:29.239Z,29.57
2023-06-17T05:52:58.921Z,29.54
2023-06-17T05:55:26.126Z,29.59
2023-06-17T05:57:53.924Z,29.47
2023-06-17T06:00:23.462Z,29.18
2023-06-17T06:02:51.767Z,28.81
2023-06-17T06:05:19.537Z,28.53
2023-06-17T06:07:47.595Z,28.48
2023-06-17T06:10:16.501Z,28.44
2023-06-17T06:12:48.173Z,28.41
2023-06-17T06:15:15.733Z,28.28
2023-06-17T06:17:43.290Z,28.25
2023-06-17T06:20:13.491Z,28.26
2023-06-17T06:22:41.600Z,28.08
2023-06-17T06:25:09.962Z,28.05
2023-06-17T06:27:37.757Z,28.15
2023-06-17T06:30:06.704Z,28.23
2023-06-17T06:32:39.465Z,28.23
2023-06-17T06:35:07.754Z,28.36
2023-06-17T06:37:35.589Z,28.35
2023-06-17T06:40:06.612Z,28.38
2023-06-17T06:42:40.468Z,28.49
2023-06-17T06:45:22.007Z,28.52
2023-06-17T06:47:49.732Z,28.47
2023-06-17T06:50:17.645Z,28.60
2023-06-17T06:52:49.387Z,28.59
2023-06-17T06:55:16.689Z,28.70
2023-06-17T06:57:46.294Z,28.84
2023-06-17T07:00:15.212Z,28.89
2023-06-17T07:02:44.350Z,28.89
2023-06-17T07:05:12.270Z,28.81
2023-06-17T07:07:45.980Z,28.68
2023-06-17T07:10:13.581Z,28.52
2023-06-17T07:12:41.701Z,28.50
2023-06-17T07:15:11.282Z,28.45
2023-06-17T07:17:41.899Z,28.52
2023-06-17T07:20:09.803Z,28.64
2023-06-17T07:22:40.195Z,28.70
2023-06-17T07:25:08.133Z,28.86
2023-06-17T07:27:36.321Z,29.03
2023-06-17T07:30:04.636Z,29.11
2023-06-17T07:32:32.508Z,29.22
2023-06-17T07:35:01.011Z,29.21
2023-06-17T07:37:29.240Z,29.29
2023-06-17T07:39:57.898Z,29.38
2023-06-17T07:42:26.105Z,29.32
2023-06-17T07:44:53.653Z,29.40
2023-06-17T07:47:22.173Z,29.60
2023-06-17T07:49:54.138Z,29.66
2023-06-17T07:52:22.638Z,29.67
2023-06-17T07:54:52.186Z,29.81
2023-06-17T07:57:20.006Z,29.76
2023-06-17T07:59:47.645Z,29.80
2023-06-17T08:02:15.352Z,29.88
2023-06-17T08:04:43.217Z,30.05
2023-06-17T08:07:11.772Z,30.16
2023-06-17T08:09:39.926Z,30.27
2023-06-17T08:12:08.527Z,30.22
2023-06-17T08:14:36.780Z,30.29
2023-06-17T08:17:04.857Z,30.41
2023-06-17T08:19:32.591Z,30.39
2023-06-17T08:22:00.040Z,30.35
2023-06-17T08:24:28.084Z,30.44
2023-06-17T08:26:55.413Z,30.48
2023-06-17T08:29:23.513Z,30.53
2023-06-17T08:31:52.092Z,30.49
2023-06-17T08:34:20.213Z,30.49
2023-06-17T08:36:50.902Z,30.28
2023-06-17T08:39:18.826Z,30.23
2023-06-17T08:41:46.641Z,30.26
2023-06-17T08:44:15.054Z,30.22
2023-06-17T08:46:43.961Z,30.19
2023-06-17T08:49:13.035Z,30.14
2023-06-17T08:51:41.149Z,30.02
2023-06-17T08:54:08.750Z,29.91
2023-06-17T08:56:36.388Z,29.79
2023-06-17T08:59:04.445Z,29.79
2023-06-17T09:01:32.666Z,29.75
2023-06-17T09:04:00.589Z,29.72
2023-06-17T09:06:30.744Z,29.64
2023-06-17T09:08:58.961Z,29.64
2023-06-17T09:11:28.392Z,29.61
2023-06-17T09:13:57.441Z,29.66
2023-06-17T09:16:25.890Z,29.60
2023-06-17T09:19:05.529Z,29.62
2023-06-17T09:21:33.587Z,29.63
2023-06-17T09:24:02.163Z,29.61
2023-06-17T09:26:30.977Z,29.61
2023-06-17T09:29:04.866Z,29.63
2023-06-17T09:31:32.624Z,29.62
2023-06-17T09:34:04.275Z,29.49
2023-06-17T09:36:32.093Z,29.46
2023-06-17T09:38:59.971Z,29.42
2023-06-17T09:41:27.721Z,29.34
2023-06-17T09:43:55.618Z,29.29
2023-06-17T09:46:30.959Z,29.20
2023-06-17T09:48:58.746Z,29.15
2023-06-17T09:51:26.391Z,29.13
2023-06-17T09:53:55.581Z,29.07
2023-06-17T09:56:23.483Z,29.02
2023-06-17T09:58:51.742Z,29.04
2023-06-17T10:01:20.019Z,29.04
2023-06-17T10:03:47.686Z,28.98
2023-06-17T10:06:17.522Z,28.93
2023-06-17T10:08:45.113Z,28.95
2023-06-17T10:11:18.909Z,28.93
2023-06-17T10:13:54.534Z,28.85
2023-06-17T10:16:22.712Z,28.78
2023-06-17T10:18:50.229Z,28.76
2023-06-17T10:21:17.718Z,28.74
2023-06-17T10:23:45.821Z,28.62
2023-06-17T10:26:14.853Z,28.67
2023-06-17T10:28:47.832Z,28.62
2023-06-17T10:31:32.300Z,28.62
2023-06-17T10:34:03.344Z,28.61
2023-06-17T10:36:30.754Z,28.45
2023-06-17T10:39:04.646Z,28.36
2023-06-17T10:41:46.886Z,28.37
2023-06-17T10:44:36.607Z,28.31
2023-06-17T10:47:06.842Z,28.20
2023-06-17T10:49:40.367Z,28.20
2023-06-17T10:52:12.847Z,28.16
2023-06-17T10:54:56.493Z,28.13
2023-06-17T10:57:34.850Z,28.10
2023-06-17T11:00:11.830Z,28.09
2023-06-17T11:02:39.646Z,28.04
2023-06-17T11:05:07.725Z,28.03
2023-06-17T11:07:35.787Z,27.93
2023-06-17T11:10:04.124Z,27.85
2023-06-17T11:12:31.827Z,27.80
2023-06-17T11:15:01.038Z,27.71
2023-06-17T11:17:29.659Z,27.65
2023-06-17T11:19:57.209Z,27.58
2023-06-17T11:22:24.716Z,27.43
2023-06-17T11:24:52.252Z,27.35
2023-06-17T11:27:20.096Z,27.22
2023-06-17T11:29:47.641Z,27.15
2023-06-17T11:32:14.946Z,27.04
2023-06-17T11:34:42.627Z,26.90
2023-06-17T11:37:12.560Z,26.82
2023-06-17T11:39:40.124Z,26.75
2023-06-17T11:42:08.703Z,26.68
2023-06-17T11:44:36.857Z,26.60
2023-06-17T11:47:08.467Z,26.60
2023-06-17T11:49:36.735Z,26.52
2023-06-17T11:52:08.006Z,26.54
2023-06-17T11:54:35.746Z,26.50
2023-06-17T11:57:04.206Z,26.61
2023-06-17T11:59:32.236Z,26.67
2023-06-17T12:01:59.631Z,26.81
2023-06-17T12:04:27.749Z,26.92
2023-06-17T12:06:55.436Z,27.13
2023-06-17T12:09:23.625Z,27.31
2023-06-17T12:11:51.259Z,27.44
2023-06-17T12:14:20.683Z,27.59
2023-06-17T12:16:48.517Z,27.77
2023-06-17T12:19:22.586Z,27.90
2023-06-17T12:21:50.397Z,28.04
2023-06-17T12:24:18.742Z,28.09
2023-06-17T12:26:46.437Z,28.10
2023-06-17T12:29:24.422Z,28.19
2023-06-17T12:31:54.524Z,28.29
2023-06-17T12:34:21.962Z,28.29
2023-06-17T12:36:50.024Z,28.29
2023-06-17T12:39:17.390Z,28.34
2023-06-17T12:41:44.821Z,28.32
2023-06-17T12:44:12.662Z,28.40
2023-06-17T12:46:41.957Z,28.38
2023-06-17T12:49:09.917Z,28.31
2023-06-17T12:51:37.529Z,28.25
2023-06-17T12:54:06.090Z,28.20
2023-06-17T12:56:33.728Z,28.13
2023-06-17T12:59:02.149Z,28.07
2023-06-17T13:01:30.062Z,28.03
2023-06-17T13:03:58.693Z,27.98
2023-06-17T13:06:27.308Z,27.82
2023-06-17T13:08:55.205Z,27.81
2023-06-17T13:11:22.988Z,27.69
2023-06-17T13:13:51.527Z,27.64
2023-06-17T13:16:18.656Z,27.49
2023-06-17T13:18:45.839Z,27.42
2023-06-17T13:21:14.101Z,27.27
2023-06-17T13:23:42.741Z,27.10
2023-06-17T13:26:11.715Z,27.04
2023-06-17T13:28:39.973Z,26.95
2023-06-17T13:31:07.655Z,26.88
2023-06-17T13:33:35.688Z,26.83
2023-06-17T13:36:03.862Z,26.78
2023-06-17T13:38:31.583Z,26.77
2023-06-17T13:40:59.140Z,26.66
2023-06-17T13:43:26.369Z,26.66
2023-06-17T13:45:54.025Z,26.56
2023-06-17T13:48:22.489Z,26.48
2023-06-17T13:50:53.091Z,26.38
2023-06-17T13:53:20.754Z,26.26
2023-06-17T13:55:49.605Z,26.20
2023-06-17T13:58:17.473Z,26.05
2023-06-17T14:00:45.417Z,25.88
2023-06-17T14:03:15.241Z,25.69
2023-06-17T14:05:44.287Z,25.53
2023-06-17T14:08:11.848Z,25.32
2023-06-17T14:10:39.649Z,25.20
2023-06-17T14:13:06.902Z,24.99
2023-06-17T14:15:34.834Z,24.91
2023-06-17T14:18:02.711Z,24.75
2023-06-17T14:20:30.554Z,24.55
2023-06-17T14:22:59.485Z,24.43
2023-06-17T14:25:27.493Z,24.24
2023-06-17T14:27:54.884Z,24.08
2023-06-17T14:30:22.541Z,23.95
2023-06-17T14:32:51.332Z,23.81
2023-06-17T14:35:19.031Z,23.70
2023-06-17T14:37:47.573Z,23.57
2023-06-17T14:40:15.515Z,23.44
2023-06-17T14:42:43.166Z,23.35
2023-06-17T14:45:12.414Z,23.31
2023-06-17T14:47:40.789Z,23.22
2023-06-17T14:50:09.744Z,23.11
2023-06-17T14:52:37.811Z,23.07
2023-06-17T14:55:06.310Z,22.95
2023-06-17T14:57:34.067Z,23.02
2023-06-17T15:00:01.919Z,23.11
2023-06-17T15:02:54.219Z,23.17
2023-06-17T15:05:21.862Z,23.14
2023-06-17T15:07:49.797Z,23.12
2023-06-17T15:10:18.035Z,23.19
2023-06-17T15:12:46.221Z,23.17
2023-06-17T15:15:14.493Z,23.22
2023-06-17T15:17:42.208Z,23.11
2023-06-17T15:20:11.234Z,23.14
2023-06-17T15:22:39.116Z,23.17
2023-06-17T15:25:07.890Z,23.18
2023-06-17T15:27:35.851Z,23.11
2023-06-17T15:30:03.715Z,23.13
2023-06-17T15:32:31.648Z,23.06
2023-06-17T15:34:59.691Z,23.10
2023-06-17T15:37:30.077Z,23.07
2023-06-17T15:39:57.505Z,23.05
2023-06-17T15:42:25.509Z,23.10
2023-06-17T15:44:53.035Z,23.06
2023-06-17T15:47:20.655Z,23.02
2023-06-17T15:49:49.620Z,23.07
2023-06-17T15:52:17.203Z,23.05
2023-06-17T15:54:45.182Z,22.91
2023-06-17T15:57:15.012Z,22.94
2023-06-17T15:59:43.032Z,22.82
2023-06-17T16:02:10.708Z,22.66
2023-06-17T16:04:39.635Z,22.51
2023-06-17T16:07:13.327Z,22.44
2023-06-17T16:09:49.066Z,22.16
2023-06-17T16:12:24.245Z,21.97
2023-06-17T16:14:52.236Z,21.84
2023-06-17T16:17:20.541Z,21.67
2023-06-17T16:19:48.291Z,21.55
2023-06-17T16:22:16.829Z,21.40
2023-06-17T16:24:44.563Z,21.25
2023-06-17T16:27:14.246Z,21.11
2023-06-17T16:29:41.924Z,20.97
2023-06-17T16:32:09.981Z,20.88
2023-06-17T16:34:38.005Z,20.76
2023-06-17T16:37:06.213Z,20.68
2023-06-17T16:39:33.863Z,20.59
2023-06-17T16:42:02.364Z,20.48
2023-06-17T16:44:32.065Z,20.30
2023-06-17T16:46:59.488Z,20.25
2023-06-17T16:49:27.246Z,20.23
2023-06-17T16:51:54.623Z,20.10
2023-06-17T16:54:22.358Z,20.03
2023-06-17T16:56:49.844Z,19.97
2023-06-17T16:59:17.499Z,19.95
2023-06-17T17:01:45.028Z,19.90
2023-06-17T17:04:13.765Z,19.90
2023-06-17T17:06:42.464Z,19.87
2023-06-17T17:09:10.348Z,19.77
2023-06-17T17:11:39.084Z,19.78
2023-06-17T17:14:07.752Z,19.68
2023-06-17T17:16:56.466Z,19.60
2023-06-17T17:19:35.195Z,19.51
2023-06-17T17:22:12.339Z,19.40
2023-06-17T17:24:45.019Z,19.45
2023-06-17T17:27:13.144Z,19.50
2023-06-17T17:29:44.435Z,19.58
2023-06-17T17:32:13.647Z,19.60
2023-06-17T17:34:41.410Z,19.61
2023-06-17T17:37:08.869Z,19.64
2023-06-17T17:39:36.727Z,19.70
2023-06-17T17:42:04.550Z,19.64
2023-06-17T17:44:32.072Z,19.55
2023-06-17T17:46:59.605Z,19.51
2023-06-17T17:49:31.766Z,19.45
2023-06-17T17:51:59.710Z,19.42
2023-06-17T17:54:27.031Z,19.35
2023-06-17T17:56:55.009Z,19.29
2023-06-17T17:59:22.368Z,19.27
2023-06-17T18:01:50.012Z,19.29
2023-06-17T18:04:17.885Z,19.23
2023-06-17T18:06:45.765Z,19.19
2023-06-17T18:09:13.251Z,19.15
2023-06-17T18:11:41.429Z,19.11
2023-06-17T18:14:08.933Z,19.03
2023-06-17T18:16:36.317Z,19.02
2023-06-17T18:19:05.356Z,19.01
2023-06-17T18:21:33.411Z,18.96
2023-06-17T18:24:04.187Z,18.92
2023-06-17T18:26:32.038Z,18.88
2023-06-17T18:29:00.242Z,18.78
2023-06-17T18:31:27.750Z,18.73
2023-06-17T18:33:56.342Z,18.72
2023-06-17T18:36:23.778Z,18.63
2023-06-17T18:38:58.247Z,18.63
2023-06-17T18:41:27.481Z,18.54
2023-06-17T18:43:57.456Z,18.46
2023-06-17T18:46:26.077Z,18.45
2023-06-17T18:48:53.767Z,18.41
2023-06-17T18:51:21.616Z,18.34
2023-06-17T18:53:49.236Z,18.27
2023-06-17T18:56:17.105Z,18.22
2023-06-17T18:58:45.061Z,18.14
2023-06-17T19:01:13.162Z,18.08
2023-06-17T19:03:43.823Z,18.08
2023-06-17T19:06:11.698Z,18.02
2023-06-17T19:08:38.945Z,18.00
2023-06-17T19:11:07.027Z,17.96
2023-06-17T19:13:34.879Z,17.89
2023-06-17T19:16:02.331Z,17.81
2023-06-17T19:18:30.682Z,17.77
2023-06-17T19:20:58.045Z,17.63
2023-06-17T19:23:25.968Z,17.58
2023-06-17T19:25:53.542Z,17.53
2023-06-17T19:28:21.237Z,17.48
2023-06-17T19:30:49.531Z,17.43
2023-06-17T19:33:17.277Z,17.41
2023-06-17T19:35:44.678Z,17.35
2023-06-17T19:38:12.238Z,17.29
2023-06-17T19:40:40.109Z,17.28
2023-06-17T19:43:07.781Z,17.26
2023-06-17T19:45:36.940Z,17.23
2023-06-17T19:48:05.445Z,17.22
2023-06-17T19:50:33.996Z,17.18
2023-06-17T19:53:03.085Z,17.13
2023-06-17T19:55:30.922Z,17.09
2023-06-17T19:57:58.305Z,17.10
2023-06-17T20:00:26.148Z,17.03
2023-06-17T20:02:56.362Z,17.00
2023-06-17T20:05:23.904Z,16.95
2023-06-17T20:07:51.815Z,16.95
2023-06-17T20:10:19.434Z,16.93
2023-06-17T20:12:48.025Z,16.87
2023-06-17T20:15:15.820Z,16.90
2023-06-17T20:17:43.903Z,16.91
2023-06-17T20:20:14.094Z,16.93
2023-06-17T20:22:42.300Z,16.85
2023-06-17T20:25:10.815Z,16.78
2023-06-17T20:27:41.627Z,16.71
2023-06-17T20:30:09.340Z,16.68
2023-06-17T20:32:36.539Z,16.68
2023-06-17T20:35:04.348Z,16.73
2023-06-17T20:37:32.080Z,16.73
2023-06-17T20:39:59.800Z,16.75
2023-06-17T20:42:27.723Z,16.74
2023-06-17T20:44:55.604Z,16.83
2023-06-17T20:47:24.082Z,16.88
2023-06-17T20:49:51.567Z,16.96
2023-06-17T20:52:19.171Z,16.98
2023-06-17T20:54:46.836Z,16.93
2023-06-17T20:57:14.108Z,16.91
2023-06-17T20:59:41.401Z,16.85
2023-06-17T21:02:09.090Z,16.80
2023-06-17T21:04:36.731Z,16.79
2023-06-17T21:07:05.015Z,16.72
2023-06-17T21:09:33.027Z,16.67
2023-06-17T21:12:01.053Z,16.64
2023-06-17T21:14:29.265Z,16.53
2023-06-17T21:16:56.791Z,16.55
2023-06-17T21:19:24.030Z,16.47
2023-06-17T21:21:51.659Z,16.50
2023-06-17T21:24:20.706Z,16.43
2023-06-17T21:26:48.610Z,16.47
2023-06-17T21:29:16.282Z,16.34
2023-06-17T21:31:44.295Z,16.40
2023-06-17T21:34:11.691Z,16.41
2023-06-17T21:36:39.368Z,16.45
2023-06-17T21:39:09.028Z,16.41
2023-06-17T21:41:36.935Z,16.42
2023-06-17T21:44:04.711Z,16.45
2023-06-17T21:46:32.218Z,16.50
2023-06-17T21:49:00.243Z,16.53
2023-06-17T21:51:27.639Z,16.57
2023-06-17T21:53:55.563Z,16.67
2023-06-17T21:56:23.015Z,16.76
2023-06-17T21:58:50.615Z,16.88
2023-06-17T22:01:18.509Z,16.91
2023-06-17T22:03:46.331Z,17.05
2023-06-17T22:06:14.301Z,17.17
2023-06-17T22:08:43.932Z,17.33
2023-06-17T22:11:12.316Z,17.67
2023-06-17T22:13:40.330Z,18.10
2023-06-17T22:16:08.134Z,18.59
2023-06-17T22:18:36.465Z,19.05
2023-06-17T22:21:04.020Z,19.53
2023-06-17T22:23:31.634Z,20.01
2023-06-17T22:25:59.896Z,20.41
2023-06-17T22:28:27.839Z,20.80
2023-06-17T22:30:55.833Z,21.23
2023-06-17T22:33:23.291Z,21.75
2023-06-17T22:35:51.054Z,22.22
2023-06-17T22:38:19.498Z,22.69
2023-06-17T22:40:46.953Z,23.20
2023-06-17T22:43:15.944Z,23.56
2023-06-17T22:45:43.758Z,24.09
2023-06-17T22:48:11.318Z,24.39
2023-06-17T22:50:38.618Z,24.54
2023-06-17T22:53:06.122Z,24.84
2023-06-17T22:55:33.503Z,24.92
2023-06-17T22:58:01.271Z,25.29
2023-06-17T23:00:28.523Z,25.58
2023-06-17T23:02:56.933Z,25.75
2023-06-17T23:05:24.517Z,25.98
2023-06-17T23:07:52.142Z,26.39
2023-06-17T23:10:19.949Z,27.04
2023-06-17T23:12:47.895Z,27.74
2023-06-17T23:15:15.957Z,28.24
2023-06-17T23:17:43.845Z,28.91
2023-06-17T23:20:11.196Z,29.23
2023-06-17T23:22:38.966Z,29.26
2023-06-17T23:25:08.373Z,29.52
2023-06-17T23:27:36.668Z,29.81
2023-06-17T23:30:04.702Z,30.13
2023-06-17T23:32:32.715Z,30.60
2023-06-17T23:35:00.862Z,31.20
2023-06-17T23:37:28.632Z,31.94
2023-06-17T23:39:56.738Z,32.49
2023-06-17T23:42:24.470Z,32.94
2023-06-17T23:44:52.986Z,33.43
2023-06-17T23:47:20.321Z,34.23
2023-06-17T23:49:47.966Z,35.26
2023-06-17T23:52:15.469Z,36.25
2023-06-17T23:54:43.078Z,37.05
2023-06-17T23:57:11.196Z,37.52
2023-06-17T23:59:39.464Z,37.79
